Not for real navigation | The accuracy of this data is not assured | See disclaimer for more information
ICAO NAME COUNTRY WIND Kt GUST Kt VIS TEMP/DEW BARO
ENHE Heidrun Norway 47 0 9999 5/2 29.71
ENHE 310650Z 30047KT 9999 -RA BKN018 05/02 Q1006 W///S7
ENUN 42 0 9999 2/-1 29.53
ENUN 310650Z AUTO 30042KT 9999NDV -SHRA OVC011/// 02/M01 Q1000 WM18/S/
ENNE 40 51 9999 5/1 29.65
ENNE 310650Z 30040G51KT 9999 BKN015 05/01 Q1004 W///S7
PATE Teller AK United States 38 0 3200 -7/-12 29.77
PATE 310706Z AUTO 18038KT 2SM -SN OVC100 M07/M12 A2977 RMK AO2 PK WND 18044/0659 P0000 FZRANO
PALU Cape Lisburne, Cape Lisburne L AK United States 35 52 16000 -5/-18 29.79
PALU 310655Z AUTO 18035G52KT 10SM BKN240 M05/M18 A2979 RMK AO2 SLP088 T10511184

Show more

Close Menu